sensor_id;sensor_type;location;lat;lon;timestamp;P1;durP1;ratioP1;P2;durP2;ratioP2
76765;SDS011;65707;52.362;6.588;2024-01-30T00:00:26;17.00;;;6.65;;
76765;SDS011;65707;52.362;6.588;2024-01-30T00:02:53;16.33;;;6.60;;
76765;SDS011;65707;52.362;6.588;2024-01-30T00:05:20;16.25;;;7.40;;
76765;SDS011;65707;52.362;6.588;2024-01-30T00:07:46;15.75;;;7.32;;
76765;SDS011;65707;52.362;6.588;2024-01-30T00:10:13;16.63;;;7.15;;
76765;SDS011;65707;52.362;6.588;2024-01-30T00:12:40;13.55;;;7.13;;
76765;SDS011;65707;52.362;6.588;2024-01-30T00:15:08;15.75;;;7.38;;
76765;SDS011;65707;52.362;6.588;2024-01-30T00:17:35;14.90;;;6.68;;
76765;SDS011;65707;52.362;6.588;2024-01-30T00:20:02;15.10;;;6.70;;
76765;SDS011;65707;52.362;6.588;2024-01-30T00:22:31;14.93;;;7.10;;
76765;SDS011;65707;52.362;6.588;2024-01-30T00:24:57;13.20;;;6.50;;
76765;SDS011;65707;52.362;6.588;2024-01-30T00:27:25;13.55;;;6.88;;
76765;SDS011;65707;52.362;6.588;2024-01-30T00:29:52;14.20;;;6.70;;
76765;SDS011;65707;52.362;6.588;2024-01-30T00:32:20;11.70;;;6.38;;
76765;SDS011;65707;52.362;6.588;2024-01-30T00:34:48;14.65;;;7.07;;
76765;SDS011;65707;52.362;6.588;2024-01-30T00:37:15;14.18;;;7.25;;
76765;SDS011;65707;52.362;6.588;2024-01-30T00:39:41;15.70;;;6.47;;
76765;SDS011;65707;52.362;6.588;2024-01-30T00:42:08;16.13;;;7.25;;
76765;SDS011;65707;52.362;6.588;2024-01-30T00:44:34;13.93;;;6.70;;
76765;SDS011;65707;52.362;6.588;2024-01-30T00:47:02;16.95;;;7.82;;
76765;SDS011;65707;52.362;6.588;2024-01-30T00:49:30;16.85;;;7.35;;
76765;SDS011;65707;52.362;6.588;2024-01-30T00:51:57;14.43;;;7.05;;
76765;SDS011;65707;52.362;6.588;2024-01-30T00:54:24;13.45;;;6.38;;
76765;SDS011;65707;52.362;6.588;2024-01-30T00:56:50;13.68;;;6.68;;
76765;SDS011;65707;52.362;6.588;2024-01-30T00:59:17;14.45;;;7.28;;
76765;SDS011;65707;52.362;6.588;2024-01-30T01:01:43;19.95;;;8.10;;
76765;SDS011;65707;52.362;6.588;2024-01-30T01:04:10;15.07;;;7.25;;
76765;SDS011;65707;52.362;6.588;2024-01-30T01:06:38;14.40;;;7.03;;
76765;SDS011;65707;52.362;6.588;2024-01-30T01:09:07;16.42;;;6.93;;
76765;SDS011;65707;52.362;6.588;2024-01-30T01:11:34;17.23;;;7.00;;
76765;SDS011;65707;52.362;6.588;2024-01-30T01:14:00;17.05;;;7.07;;
76765;SDS011;65707;52.362;6.588;2024-01-30T01:16:28;18.08;;;7.25;;
76765;SDS011;65707;52.362;6.588;2024-01-30T01:18:54;15.52;;;6.93;;
76765;SDS011;65707;52.362;6.588;2024-01-30T01:21:21;15.20;;;6.88;;
76765;SDS011;65707;52.362;6.588;2024-01-30T01:23:49;15.35;;;6.78;;
76765;SDS011;65707;52.362;6.588;2024-01-30T01:26:16;13.32;;;6.95;;
76765;SDS011;65707;52.362;6.588;2024-01-30T01:28:42;17.67;;;7.13;;
76765;SDS011;65707;52.362;6.588;2024-01-30T01:31:09;15.10;;;7.47;;
76765;SDS011;65707;52.362;6.588;2024-01-30T01:33:36;14.68;;;7.20;;
76765;SDS011;65707;52.362;6.588;2024-01-30T01:36:03;15.23;;;7.30;;
76765;SDS011;65707;52.362;6.588;2024-01-30T01:38:31;17.10;;;7.25;;
76765;SDS011;65707;52.362;6.588;2024-01-30T01:40:59;15.30;;;7.13;;
76765;SDS011;65707;52.362;6.588;2024-01-30T01:43:26;14.43;;;7.00;;
76765;SDS011;65707;52.362;6.588;2024-01-30T01:45:53;14.93;;;6.88;;
76765;SDS011;65707;52.362;6.588;2024-01-30T01:48:19;16.73;;;7.50;;
76765;SDS011;65707;52.362;6.588;2024-01-30T01:50:47;14.50;;;7.05;;
76765;SDS011;65707;52.362;6.588;2024-01-30T01:53:14;15.45;;;6.80;;
76765;SDS011;65707;52.362;6.588;2024-01-30T01:55:42;17.38;;;7.43;;
76765;SDS011;65707;52.362;6.588;2024-01-30T01:58:11;13.43;;;7.00;;
76765;SDS011;65707;52.362;6.588;2024-01-30T02:00:38;14.80;;;7.13;;
76765;SDS011;65707;52.362;6.588;2024-01-30T02:03:06;15.55;;;6.85;;
76765;SDS011;65707;52.362;6.588;2024-01-30T02:05:36;14.13;;;6.60;;
76765;SDS011;65707;52.362;6.588;2024-01-30T02:08:04;14.18;;;6.97;;
76765;SDS011;65707;52.362;6.588;2024-01-30T02:10:32;13.75;;;6.45;;
76765;SDS011;65707;52.362;6.588;2024-01-30T02:12:59;14.20;;;6.80;;
76765;SDS011;65707;52.362;6.588;2024-01-30T02:15:28;15.23;;;7.30;;
76765;SDS011;65707;52.362;6.588;2024-01-30T02:17:55;14.38;;;7.03;;
76765;SDS011;65707;52.362;6.588;2024-01-30T02:20:21;11.82;;;6.05;;
76765;SDS011;65707;52.362;6.588;2024-01-30T02:22:52;14.63;;;7.20;;
76765;SDS011;65707;52.362;6.588;2024-01-30T02:25:29;15.98;;;7.03;;
76765;SDS011;65707;52.362;6.588;2024-01-30T02:27:57;15.98;;;6.70;;
76765;SDS011;65707;52.362;6.588;2024-01-30T02:30:24;17.77;;;6.78;;
76765;SDS011;65707;52.362;6.588;2024-01-30T02:32:51;13.93;;;6.60;;
76765;SDS011;65707;52.362;6.588;2024-01-30T02:35:17;15.15;;;6.30;;
76765;SDS011;65707;52.362;6.588;2024-01-30T02:37:44;15.98;;;6.68;;
76765;SDS011;65707;52.362;6.588;2024-01-30T02:40:12;14.98;;;6.70;;
76765;SDS011;65707;52.362;6.588;2024-01-30T02:42:39;14.25;;;6.60;;
76765;SDS011;65707;52.362;6.588;2024-01-30T02:45:07;15.38;;;7.03;;
76765;SDS011;65707;52.362;6.588;2024-01-30T02:47:35;16.02;;;6.72;;
76765;SDS011;65707;52.362;6.588;2024-01-30T02:50:02;15.55;;;7.20;;
76765;SDS011;65707;52.362;6.588;2024-01-30T02:52:29;14.02;;;6.90;;
76765;SDS011;65707;52.362;6.588;2024-01-30T02:54:56;15.27;;;6.82;;
76765;SDS011;65707;52.362;6.588;2024-01-30T02:57:24;15.38;;;7.32;;
76765;SDS011;65707;52.362;6.588;2024-01-30T02:59:50;16.00;;;7.07;;
76765;SDS011;65707;52.362;6.588;2024-01-30T03:02:17;17.13;;;7.97;;
76765;SDS011;65707;52.362;6.588;2024-01-30T03:04:44;18.27;;;7.05;;
76765;SDS011;65707;52.362;6.588;2024-01-30T03:07:11;14.98;;;7.00;;
76765;SDS011;65707;52.362;6.588;2024-01-30T03:09:38;14.82;;;6.88;;
76765;SDS011;65707;52.362;6.588;2024-01-30T03:12:07;15.07;;;7.07;;
76765;SDS011;65707;52.362;6.588;2024-01-30T03:14:35;16.23;;;7.32;;
76765;SDS011;65707;52.362;6.588;2024-01-30T03:17:02;16.23;;;6.85;;
76765;SDS011;65707;52.362;6.588;2024-01-30T03:19:29;17.75;;;7.32;;
76765;SDS011;65707;52.362;6.588;2024-01-30T03:21:56;15.38;;;7.18;;
76765;SDS011;65707;52.362;6.588;2024-01-30T03:24:22;16.02;;;7.32;;
76765;SDS011;65707;52.362;6.588;2024-01-30T03:26:49;14.45;;;7.38;;
76765;SDS011;65707;52.362;6.588;2024-01-30T03:29:16;16.10;;;7.38;;
76765;SDS011;65707;52.362;6.588;2024-01-30T03:31:44;15.10;;;6.85;;
76765;SDS011;65707;52.362;6.588;2024-01-30T03:34:10;17.38;;;7.60;;
76765;SDS011;65707;52.362;6.588;2024-01-30T03:36:37;17.17;;;7.93;;
76765;SDS011;65707;52.362;6.588;2024-01-30T03:39:04;15.45;;;7.75;;
76765;SDS011;65707;52.362;6.588;2024-01-30T03:41:31;14.95;;;7.35;;
76765;SDS011;65707;52.362;6.588;2024-01-30T03:43:58;17.00;;;7.70;;
76765;SDS011;65707;52.362;6.588;2024-01-30T03:46:25;16.30;;;7.40;;
76765;SDS011;65707;52.362;6.588;2024-01-30T03:48:53;16.08;;;7.32;;
76765;SDS011;65707;52.362;6.588;2024-01-30T03:51:20;15.85;;;7.43;;
76765;SDS011;65707;52.362;6.588;2024-01-30T03:53:46;18.30;;;7.60;;
76765;SDS011;65707;52.362;6.588;2024-01-30T03:56:13;16.88;;;7.28;;
76765;SDS011;65707;52.362;6.588;2024-01-30T03:58:40;14.13;;;6.72;;
76765;SDS011;65707;52.362;6.588;2024-01-30T04:01:07;16.80;;;7.95;;
76765;SDS011;65707;52.362;6.588;2024-01-30T04:03:33;14.60;;;7.88;;
76765;SDS011;65707;52.362;6.588;2024-01-30T04:06:01;17.05;;;7.63;;
76765;SDS011;65707;52.362;6.588;2024-01-30T04:08:28;16.02;;;7.45;;
76765;SDS011;65707;52.362;6.588;2024-01-30T04:10:55;17.05;;;7.53;;
76765;SDS011;65707;52.362;6.588;2024-01-30T04:13:21;16.88;;;7.68;;
76765;SDS011;65707;52.362;6.588;2024-01-30T04:15:48;15.68;;;7.78;;
76765;SDS011;65707;52.362;6.588;2024-01-30T04:18:15;17.23;;;8.13;;
76765;SDS011;65707;52.362;6.588;2024-01-30T04:20:41;16.38;;;8.07;;
76765;SDS011;65707;52.362;6.588;2024-01-30T04:23:09;15.52;;;8.00;;
76765;SDS011;65707;52.362;6.588;2024-01-30T04:25:36;18.75;;;7.32;;
76765;SDS011;65707;52.362;6.588;2024-01-30T04:28:03;18.75;;;8.10;;
76765;SDS011;65707;52.362;6.588;2024-01-30T04:30:30;15.68;;;7.95;;
76765;SDS011;65707;52.362;6.588;2024-01-30T04:32:57;15.93;;;7.68;;
76765;SDS011;65707;52.362;6.588;2024-01-30T04:35:23;15.40;;;7.65;;
76765;SDS011;65707;52.362;6.588;2024-01-30T04:37:51;15.70;;;7.43;;
76765;SDS011;65707;52.362;6.588;2024-01-30T04:40:19;17.33;;;7.38;;
76765;SDS011;65707;52.362;6.588;2024-01-30T04:42:46;14.43;;;7.60;;
76765;SDS011;65707;52.362;6.588;2024-01-30T04:45:13;14.63;;;7.07;;
76765;SDS011;65707;52.362;6.588;2024-01-30T04:47:40;16.45;;;7.07;;
76765;SDS011;65707;52.362;6.588;2024-01-30T04:50:07;15.45;;;7.90;;
76765;SDS011;65707;52.362;6.588;2024-01-30T04:52:34;17.52;;;7.47;;
76765;SDS011;65707;52.362;6.588;2024-01-30T04:55:01;15.38;;;7.55;;
76765;SDS011;65707;52.362;6.588;2024-01-30T04:57:29;14.80;;;7.65;;
76765;SDS011;65707;52.362;6.588;2024-01-30T04:59:58;16.27;;;7.55;;
76765;SDS011;65707;52.362;6.588;2024-01-30T05:02:25;14.95;;;7.30;;
76765;SDS011;65707;52.362;6.588;2024-01-30T05:04:53;16.05;;;7.43;;
76765;SDS011;65707;52.362;6.588;2024-01-30T05:07:20;14.60;;;7.90;;
76765;SDS011;65707;52.362;6.588;2024-01-30T05:09:46;17.88;;;7.75;;
76765;SDS011;65707;52.362;6.588;2024-01-30T05:12:13;15.88;;;7.80;;
76765;SDS011;65707;52.362;6.588;2024-01-30T05:14:41;16.10;;;7.22;;
76765;SDS011;65707;52.362;6.588;2024-01-30T05:17:08;15.38;;;7.38;;
76765;SDS011;65707;52.362;6.588;2024-01-30T05:19:37;14.70;;;7.20;;
76765;SDS011;65707;52.362;6.588;2024-01-30T05:22:04;13.82;;;7.10;;
76765;SDS011;65707;52.362;6.588;2024-01-30T05:24:31;14.98;;;7.43;;
76765;SDS011;65707;52.362;6.588;2024-01-30T05:26:57;13.90;;;6.80;;
76765;SDS011;65707;52.362;6.588;2024-01-30T05:29:24;15.02;;;7.57;;
76765;SDS011;65707;52.362;6.588;2024-01-30T05:31:52;18.25;;;7.13;;
76765;SDS011;65707;52.362;6.588;2024-01-30T05:34:19;15.07;;;6.75;;
76765;SDS011;65707;52.362;6.588;2024-01-30T05:36:46;15.07;;;7.40;;
76765;SDS011;65707;52.362;6.588;2024-01-30T05:39:12;15.43;;;7.13;;
76765;SDS011;65707;52.362;6.588;2024-01-30T05:41:39;15.73;;;7.65;;
76765;SDS011;65707;52.362;6.588;2024-01-30T05:44:06;14.85;;;6.97;;
76765;SDS011;65707;52.362;6.588;2024-01-30T05:46:33;12.82;;;6.85;;
76765;SDS011;65707;52.362;6.588;2024-01-30T05:49:02;17.42;;;7.45;;
76765;SDS011;65707;52.362;6.588;2024-01-30T05:51:29;13.50;;;6.90;;
76765;SDS011;65707;52.362;6.588;2024-01-30T05:53:56;14.38;;;7.13;;
76765;SDS011;65707;52.362;6.588;2024-01-30T05:56:22;14.40;;;6.70;;
76765;SDS011;65707;52.362;6.588;2024-01-30T05:58:49;13.77;;;6.57;;
76765;SDS011;65707;52.362;6.588;2024-01-30T06:01:16;16.70;;;6.40;;
76765;SDS011;65707;52.362;6.588;2024-01-30T06:03:43;12.80;;;6.50;;
76765;SDS011;65707;52.362;6.588;2024-01-30T06:06:11;17.25;;;7.35;;
76765;SDS011;65707;52.362;6.588;2024-01-30T06:08:37;16.27;;;7.22;;
76765;SDS011;65707;52.362;6.588;2024-01-30T06:11:04;16.10;;;7.20;;
76765;SDS011;65707;52.362;6.588;2024-01-30T06:13:31;15.27;;;6.90;;
76765;SDS011;65707;52.362;6.588;2024-01-30T06:15:58;12.80;;;6.82;;
76765;SDS011;65707;52.362;6.588;2024-01-30T06:18:25;15.77;;;6.75;;
76765;SDS011;65707;52.362;6.588;2024-01-30T06:20:52;13.57;;;6.53;;
76765;SDS011;65707;52.362;6.588;2024-01-30T06:23:20;19.55;;;6.75;;
76765;SDS011;65707;52.362;6.588;2024-01-30T06:25:46;15.02;;;6.82;;
76765;SDS011;65707;52.362;6.588;2024-01-30T06:28:13;14.20;;;6.47;;
76765;SDS011;65707;52.362;6.588;2024-01-30T06:30:40;13.07;;;6.60;;
76765;SDS011;65707;52.362;6.588;2024-01-30T06:33:06;14.43;;;7.15;;
76765;SDS011;65707;52.362;6.588;2024-01-30T06:35:33;13.93;;;6.90;;
76765;SDS011;65707;52.362;6.588;2024-01-30T06:38:01;16.40;;;6.90;;
76765;SDS011;65707;52.362;6.588;2024-01-30T06:40:29;14.07;;;6.13;;
76765;SDS011;65707;52.362;6.588;2024-01-30T06:42:55;12.85;;;6.47;;
76765;SDS011;65707;52.362;6.588;2024-01-30T06:45:22;13.57;;;5.78;;
76765;SDS011;65707;52.362;6.588;2024-01-30T06:47:49;14.65;;;6.40;;
76765;SDS011;65707;52.362;6.588;2024-01-30T06:50:15;16.77;;;6.70;;
76765;SDS011;65707;52.362;6.588;2024-01-30T06:52:42;14.57;;;6.38;;
76765;SDS011;65707;52.362;6.588;2024-01-30T06:55:09;13.10;;;6.15;;
76765;SDS011;65707;52.362;6.588;2024-01-30T06:57:37;13.80;;;6.57;;
76765;SDS011;65707;52.362;6.588;2024-01-30T07:00:04;13.48;;;6.72;;
76765;SDS011;65707;52.362;6.588;2024-01-30T07:02:32;14.07;;;6.43;;
76765;SDS011;65707;52.362;6.588;2024-01-30T07:04:59;13.57;;;6.60;;
76765;SDS011;65707;52.362;6.588;2024-01-30T07:07:25;13.57;;;6.18;;
76765;SDS011;65707;52.362;6.588;2024-01-30T07:09:52;12.70;;;6.13;;
76765;SDS011;65707;52.362;6.588;2024-01-30T07:12:21;13.98;;;6.63;;
76765;SDS011;65707;52.362;6.588;2024-01-30T07:14:50;14.40;;;6.47;;
76765;SDS011;65707;52.362;6.588;2024-01-30T07:17:17;14.02;;;6.53;;
76765;SDS011;65707;52.362;6.588;2024-01-30T07:19:44;16.35;;;6.68;;
76765;SDS011;65707;52.362;6.588;2024-01-30T07:22:10;14.93;;;6.55;;
76765;SDS011;65707;52.362;6.588;2024-01-30T07:24:41;14.55;;;6.72;;
76765;SDS011;65707;52.362;6.588;2024-01-30T07:27:12;14.07;;;6.82;;
76765;SDS011;65707;52.362;6.588;2024-01-30T07:29:38;14.38;;;6.60;;
76765;SDS011;65707;52.362;6.588;2024-01-30T07:32:06;15.50;;;6.10;;
76765;SDS011;65707;52.362;6.588;2024-01-30T07:34:33;17.05;;;6.38;;
76765;SDS011;65707;52.362;6.588;2024-01-30T07:37:01;12.95;;;6.85;;
76765;SDS011;65707;52.362;6.588;2024-01-30T07:39:28;13.90;;;6.50;;
76765;SDS011;65707;52.362;6.588;2024-01-30T07:41:55;12.63;;;5.82;;
76765;SDS011;65707;52.362;6.588;2024-01-30T07:44:21;15.40;;;6.03;;
76765;SDS011;65707;52.362;6.588;2024-01-30T07:46:48;15.05;;;5.70;;
76765;SDS011;65707;52.362;6.588;2024-01-30T07:49:16;14.27;;;5.75;;
76765;SDS011;65707;52.362;6.588;2024-01-30T07:51:43;12.95;;;6.07;;
76765;SDS011;65707;52.362;6.588;2024-01-30T07:54:16;14.98;;;6.00;;
76765;SDS011;65707;52.362;6.588;2024-01-30T07:56:43;11.77;;;5.97;;
76765;SDS011;65707;52.362;6.588;2024-01-30T07:59:10;12.43;;;5.85;;
76765;SDS011;65707;52.362;6.588;2024-01-30T08:01:37;13.15;;;5.97;;
76765;SDS011;65707;52.362;6.588;2024-01-30T08:04:04;13.32;;;5.95;;
76765;SDS011;65707;52.362;6.588;2024-01-30T08:06:32;13.93;;;5.93;;
76765;SDS011;65707;52.362;6.588;2024-01-30T08:08:59;12.60;;;5.38;;
76765;SDS011;65707;52.362;6.588;2024-01-30T08:11:25;13.93;;;5.78;;
76765;SDS011;65707;52.362;6.588;2024-01-30T08:13:54;12.25;;;5.40;;
76765;SDS011;65707;52.362;6.588;2024-01-30T08:16:21;14.00;;;5.15;;
76765;SDS011;65707;52.362;6.588;2024-01-30T08:18:48;12.70;;;5.82;;
76765;SDS011;65707;52.362;6.588;2024-01-30T08:21:14;13.07;;;5.75;;
76765;SDS011;65707;52.362;6.588;2024-01-30T08:23:43;12.93;;;5.55;;
76765;SDS011;65707;52.362;6.588;2024-01-30T08:26:09;14.73;;;5.78;;
76765;SDS011;65707;52.362;6.588;2024-01-30T08:28:36;13.80;;;5.88;;
76765;SDS011;65707;52.362;6.588;2024-01-30T08:31:03;16.30;;;5.82;;
76765;SDS011;65707;52.362;6.588;2024-01-30T08:33:30;10.50;;;5.45;;
76765;SDS011;65707;52.362;6.588;2024-01-30T08:35:57;13.23;;;5.82;;
76765;SDS011;65707;52.362;6.588;2024-01-30T08:38:24;12.18;;;6.07;;
76765;SDS011;65707;52.362;6.588;2024-01-30T08:40:52;13.40;;;5.70;;
76765;SDS011;65707;52.362;6.588;2024-01-30T08:43:19;11.85;;;5.53;;
76765;SDS011;65707;52.362;6.588;2024-01-30T08:45:46;13.23;;;5.53;;
76765;SDS011;65707;52.362;6.588;2024-01-30T08:48:13;12.05;;;6.07;;
76765;SDS011;65707;52.362;6.588;2024-01-30T08:50:40;15.93;;;5.72;;
76765;SDS011;65707;52.362;6.588;2024-01-30T08:53:06;11.70;;;5.93;;
76765;SDS011;65707;52.362;6.588;2024-01-30T08:55:33;13.75;;;6.13;;
76765;SDS011;65707;52.362;6.588;2024-01-30T08:58:01;13.00;;;5.75;;
76765;SDS011;65707;52.362;6.588;2024-01-30T09:00:29;11.63;;;5.13;;
76765;SDS011;65707;52.362;6.588;2024-01-30T09:02:56;12.77;;;5.18;;
76765;SDS011;65707;52.362;6.588;2024-01-30T09:05:23;14.25;;;5.78;;
76765;SDS011;65707;52.362;6.588;2024-01-30T09:07:50;14.18;;;5.47;;
76765;SDS011;65707;52.362;6.588;2024-01-30T09:10:16;10.40;;;5.20;;
76765;SDS011;65707;52.362;6.588;2024-01-30T09:12:43;13.68;;;5.40;;
76765;SDS011;65707;52.362;6.588;2024-01-30T09:15:11;12.13;;;5.53;;
76765;SDS011;65707;52.362;6.588;2024-01-30T09:17:38;12.07;;;5.25;;
76765;SDS011;65707;52.362;6.588;2024-01-30T09:20:05;15.40;;;6.57;;
76765;SDS011;65707;52.362;6.588;2024-01-30T09:22:34;18.38;;;6.10;;
76765;SDS011;65707;52.362;6.588;2024-01-30T09:25:00;17.50;;;5.70;;
76765;SDS011;65707;52.362;6.588;2024-01-30T09:27:27;14.52;;;5.10;;
76765;SDS011;65707;52.362;6.588;2024-01-30T09:29:54;12.73;;;5.57;;
76765;SDS011;65707;52.362;6.588;2024-01-30T09:32:22;14.10;;;5.07;;
76765;SDS011;65707;52.362;6.588;2024-01-30T09:34:49;13.68;;;5.15;;
76765;SDS011;65707;52.362;6.588;2024-01-30T09:37:15;11.85;;;5.18;;
76765;SDS011;65707;52.362;6.588;2024-01-30T09:39:43;12.88;;;5.40;;
76765;SDS011;65707;52.362;6.588;2024-01-30T09:42:11;12.85;;;5.43;;
76765;SDS011;65707;52.362;6.588;2024-01-30T09:44:52;11.68;;;5.10;;
76765;SDS011;65707;52.362;6.588;2024-01-30T09:47:21;11.45;;;4.95;;
76765;SDS011;65707;52.362;6.588;2024-01-30T09:49:48;11.98;;;5.43;;
76765;SDS011;65707;52.362;6.588;2024-01-30T09:52:17;12.68;;;5.20;;
76765;SDS011;65707;52.362;6.588;2024-01-30T09:54:44;11.02;;;4.82;;
76765;SDS011;65707;52.362;6.588;2024-01-30T09:57:11;11.80;;;5.32;;
76765;SDS011;65707;52.362;6.588;2024-01-30T09:59:38;11.93;;;5.22;;
76765;SDS011;65707;52.362;6.588;2024-01-30T10:02:05;11.73;;;5.40;;
76765;SDS011;65707;52.362;6.588;2024-01-30T10:04:34;14.20;;;5.47;;
76765;SDS011;65707;52.362;6.588;2024-01-30T10:07:01;11.63;;;5.43;;
76765;SDS011;65707;52.362;6.588;2024-01-30T10:09:31;11.25;;;5.05;;
76765;SDS011;65707;52.362;6.588;2024-01-30T10:11:59;12.18;;;5.15;;
76765;SDS011;65707;52.362;6.588;2024-01-30T10:14:28;14.13;;;5.28;;
76765;SDS011;65707;52.362;6.588;2024-01-30T10:16:55;16.20;;;5.78;;
76765;SDS011;65707;52.362;6.588;2024-01-30T10:19:23;13.43;;;5.60;;
76765;SDS011;65707;52.362;6.588;2024-01-30T10:21:51;16.35;;;5.63;;
76765;SDS011;65707;52.362;6.588;2024-01-30T10:24:18;13.70;;;5.60;;
76765;SDS011;65707;52.362;6.588;2024-01-30T10:26:49;12.93;;;4.82;;
76765;SDS011;65707;52.362;6.588;2024-01-30T10:29:16;13.48;;;5.53;;
76765;SDS011;65707;52.362;6.588;2024-01-30T10:31:43;13.18;;;4.88;;
76765;SDS011;65707;52.362;6.588;2024-01-30T10:34:10;12.68;;;4.90;;
76765;SDS011;65707;52.362;6.588;2024-01-30T10:36:38;13.75;;;5.47;;
76765;SDS011;65707;52.362;6.588;2024-01-30T10:39:08;12.10;;;5.07;;
76765;SDS011;65707;52.362;6.588;2024-01-30T10:41:42;13.20;;;5.22;;
76765;SDS011;65707;52.362;6.588;2024-01-30T10:44:11;12.20;;;5.35;;
76765;SDS011;65707;52.362;6.588;2024-01-30T10:46:44;12.80;;;4.93;;
76765;SDS011;65707;52.362;6.588;2024-01-30T10:49:19;10.73;;;4.85;;
76765;SDS011;65707;52.362;6.588;2024-01-30T10:51:48;10.82;;;4.95;;
76765;SDS011;65707;52.362;6.588;2024-01-30T10:54:18;12.20;;;5.13;;
76765;SDS011;65707;52.362;6.588;2024-01-30T10:56:46;11.63;;;5.25;;
76765;SDS011;65707;52.362;6.588;2024-01-30T10:59:15;11.20;;;5.35;;
76765;SDS011;65707;52.362;6.588;2024-01-30T11:01:43;11.38;;;4.85;;
76765;SDS011;65707;52.362;6.588;2024-01-30T11:04:10;9.93;;;4.70;;
76765;SDS011;65707;52.362;6.588;2024-01-30T11:06:40;13.43;;;5.78;;
76765;SDS011;65707;52.362;6.588;2024-01-30T11:09:10;12.27;;;6.07;;
76765;SDS011;65707;52.362;6.588;2024-01-30T11:11:51;14.68;;;5.75;;
76765;SDS011;65707;52.362;6.588;2024-01-30T11:14:25;13.85;;;5.07;;
76765;SDS011;65707;52.362;6.588;2024-01-30T11:16:52;13.75;;;5.90;;
76765;SDS011;65707;52.362;6.588;2024-01-30T11:19:22;13.60;;;5.72;;
76765;SDS011;65707;52.362;6.588;2024-01-30T11:21:50;14.00;;;5.68;;
76765;SDS011;65707;52.362;6.588;2024-01-30T11:24:19;14.60;;;5.65;;
76765;SDS011;65707;52.362;6.588;2024-01-30T11:26:47;14.60;;;5.40;;
76765;SDS011;65707;52.362;6.588;2024-01-30T11:29:20;12.90;;;5.20;;
76765;SDS011;65707;52.362;6.588;2024-01-30T11:31:53;12.00;;;5.28;;
76765;SDS011;65707;52.362;6.588;2024-01-30T11:34:21;14.48;;;5.72;;
76765;SDS011;65707;52.362;6.588;2024-01-30T11:36:51;13.63;;;5.80;;
76765;SDS011;65707;52.362;6.588;2024-01-30T11:39:24;12.98;;;4.93;;
76765;SDS011;65707;52.362;6.588;2024-01-30T11:41:52;11.90;;;5.18;;
76765;SDS011;65707;52.362;6.588;2024-01-30T11:44:21;12.52;;;5.18;;
76765;SDS011;65707;52.362;6.588;2024-01-30T11:46:48;11.10;;;4.93;;
76765;SDS011;65707;52.362;6.588;2024-01-30T11:49:16;11.93;;;4.80;;
76765;SDS011;65707;52.362;6.588;2024-01-30T11:51:44;9.82;;;4.72;;
76765;SDS011;65707;52.362;6.588;2024-01-30T11:54:13;12.32;;;4.60;;
76765;SDS011;65707;52.362;6.588;2024-01-30T11:56:40;15.13;;;4.88;;
76765;SDS011;65707;52.362;6.588;2024-01-30T11:59:09;12.98;;;4.78;;
76765;SDS011;65707;52.362;6.588;2024-01-30T12:01:37;15.68;;;5.30;;
76765;SDS011;65707;52.362;6.588;2024-01-30T12:04:04;12.18;;;4.80;;
76765;SDS011;65707;52.362;6.588;2024-01-30T12:06:33;10.75;;;4.10;;
76765;SDS011;65707;52.362;6.588;2024-01-30T12:09:01;11.55;;;4.28;;
76765;SDS011;65707;52.362;6.588;2024-01-30T12:11:30;11.32;;;4.00;;
76765;SDS011;65707;52.362;6.588;2024-01-30T12:13:56;10.25;;;3.97;;
76765;SDS011;65707;52.362;6.588;2024-01-30T12:16:24;11.43;;;4.40;;
76765;SDS011;65707;52.362;6.588;2024-01-30T12:19:00;9.55;;;3.75;;
76765;SDS011;65707;52.362;6.588;2024-01-30T12:21:27;12.07;;;4.60;;
76765;SDS011;65707;52.362;6.588;2024-01-30T12:23:54;10.98;;;4.75;;
76765;SDS011;65707;52.362;6.588;2024-01-30T12:26:22;10.05;;;4.03;;
76765;SDS011;65707;52.362;6.588;2024-01-30T12:28:50;10.38;;;4.45;;
76765;SDS011;65707;52.362;6.588;2024-01-30T12:31:25;11.98;;;4.80;;
76765;SDS011;65707;52.362;6.588;2024-01-30T12:33:52;13.70;;;5.03;;
76765;SDS011;65707;52.362;6.588;2024-01-30T12:36:20;13.07;;;4.57;;
76765;SDS011;65707;52.362;6.588;2024-01-30T12:38:47;12.13;;;5.07;;
76765;SDS011;65707;52.362;6.588;2024-01-30T12:41:14;16.40;;;5.43;;
76765;SDS011;65707;52.362;6.588;2024-01-30T12:43:41;11.73;;;5.15;;
76765;SDS011;65707;52.362;6.588;2024-01-30T12:46:08;11.70;;;4.57;;
76765;SDS011;65707;52.362;6.588;2024-01-30T12:48:35;10.57;;;4.60;;
76765;SDS011;65707;52.362;6.588;2024-01-30T12:51:02;9.68;;;3.60;;
76765;SDS011;65707;52.362;6.588;2024-01-30T12:53:30;14.90;;;3.70;;
76765;SDS011;65707;52.362;6.588;2024-01-30T12:55:57;9.05;;;2.90;;
76765;SDS011;65707;52.362;6.588;2024-01-30T12:58:24;9.52;;;3.67;;
76765;SDS011;65707;52.362;6.588;2024-01-30T13:00:51;7.97;;;2.80;;
76765;SDS011;65707;52.362;6.588;2024-01-30T13:03:19;9.90;;;3.03;;
76765;SDS011;65707;52.362;6.588;2024-01-30T13:05:46;8.98;;;2.60;;
76765;SDS011;65707;52.362;6.588;2024-01-30T13:08:13;8.90;;;3.00;;
76765;SDS011;65707;52.362;6.588;2024-01-30T13:10:41;8.02;;;3.10;;
76765;SDS011;65707;52.362;6.588;2024-01-30T13:13:07;8.15;;;2.85;;
76765;SDS011;65707;52.362;6.588;2024-01-30T13:15:34;7.95;;;2.63;;
76765;SDS011;65707;52.362;6.588;2024-01-30T13:18:01;8.93;;;2.63;;
76765;SDS011;65707;52.362;6.588;2024-01-30T13:20:28;8.80;;;2.70;;
76765;SDS011;65707;52.362;6.588;2024-01-30T13:22:55;8.40;;;2.67;;
76765;SDS011;65707;52.362;6.588;2024-01-30T13:25:22;9.35;;;2.70;;
76765;SDS011;65707;52.362;6.588;2024-01-30T13:27:50;10.73;;;2.80;;
76765;SDS011;65707;52.362;6.588;2024-01-30T13:30:17;9.55;;;2.60;;
76765;SDS011;65707;52.362;6.588;2024-01-30T13:32:44;8.52;;;2.67;;
76765;SDS011;65707;52.362;6.588;2024-01-30T13:35:11;7.13;;;2.50;;
76765;SDS011;65707;52.362;6.588;2024-01-30T13:37:38;8.30;;;2.28;;
76765;SDS011;65707;52.362;6.588;2024-01-30T13:40:07;9.82;;;2.50;;
76765;SDS011;65707;52.362;6.588;2024-01-30T13:42:35;8.07;;;2.10;;
76765;SDS011;65707;52.362;6.588;2024-01-30T13:45:03;7.43;;;2.40;;
76765;SDS011;65707;52.362;6.588;2024-01-30T13:47:31;9.20;;;2.17;;
76765;SDS011;65707;52.362;6.588;2024-01-30T13:49:57;13.45;;;2.60;;
76765;SDS011;65707;52.362;6.588;2024-01-30T13:52:24;6.82;;;1.58;;
76765;SDS011;65707;52.362;6.588;2024-01-30T13:54:52;7.35;;;1.67;;
76765;SDS011;65707;52.362;6.588;2024-01-30T13:57:18;6.40;;;1.92;;
76765;SDS011;65707;52.362;6.588;2024-01-30T13:59:45;7.82;;;1.67;;
76765;SDS011;65707;52.362;6.588;2024-01-30T14:02:13;6.50;;;1.60;;
76765;SDS011;65707;52.362;6.588;2024-01-30T14:04:40;6.25;;;1.50;;
76765;SDS011;65707;52.362;6.588;2024-01-30T14:07:06;6.07;;;1.80;;
76765;SDS011;65707;52.362;6.588;2024-01-30T14:09:33;7.18;;;1.90;;
76765;SDS011;65707;52.362;6.588;2024-01-30T14:12:01;6.03;;;1.60;;
76765;SDS011;65707;52.362;6.588;2024-01-30T14:14:28;6.70;;;2.40;;
76765;SDS011;65707;52.362;6.588;2024-01-30T14:16:54;5.90;;;1.88;;
76765;SDS011;65707;52.362;6.588;2024-01-30T14:19:22;7.10;;;1.90;;
76765;SDS011;65707;52.362;6.588;2024-01-30T14:21:49;6.10;;;2.22;;
76765;SDS011;65707;52.362;6.588;2024-01-30T14:24:16;7.38;;;2.20;;
76765;SDS011;65707;52.362;6.588;2024-01-30T14:26:42;5.82;;;2.10;;
76765;SDS011;65707;52.362;6.588;2024-01-30T14:29:09;7.22;;;2.33;;
76765;SDS011;65707;52.362;6.588;2024-01-30T14:31:36;5.85;;;1.92;;
76765;SDS011;65707;52.362;6.588;2024-01-30T14:34:03;6.70;;;2.28;;
76765;SDS011;65707;52.362;6.588;2024-01-30T14:36:31;5.97;;;2.10;;